TAF LFOK
LFOK 090500Z 0906/1006 21010KT 9999 BKN030 PROB30 TEMPO 0906/0910 2000 RASN BKN006 BKN030TCU BECMG 0910/0913 BKN011 PROB30 0918/0923 BKN003 BECMG 1002/1005 2000 RA OVC004=
METAR LFOK
LFOK 090630Z AUTO 22010KT 9999 FEW006 BKN039 BKN110 00/00 Q1007 TEMPO 2000 RASN BKN006 BKN030TCU=
LFOK 090600Z AUTO 22011KT 9999 FEW005 SCT120 BKN140 00/00 Q1007 TEMPO 2000 RASN BKN006 BKN030TCU=
LFOK 090530Z AUTO 23012KT 9999 FEW004 BKN150 BKN170 00/00 Q1007 TEMPO 2000 RASN BKN006 BKN030TCU=
LFOK 090500Z AUTO 23012KT CAVOK 00/00 Q1006 TEMPO 2000 RASN BKN003 BKN030TCU=
LFOK 090430Z AUTO 21011KT 9999 BKN047 BKN200 00/00 Q1006 TEMPO 2000 RASN BKN003 BKN030TCU=
WC LFOK
WS LFOK
WV LFOK